D/T METAR WX W/DIR W/SPE G/SPE TEMP DEWP
9/12/19 12:50 EGOV 091250Z 32016KT 9999 FEW030 09/02 Q1018 NOSIG RMK BLU BLU NW (320°) 18.4mph 9°C 2°C
9/12/19 12:20 EGOV 091220Z 32018KT 9999 FEW032 09/02 Q1018 NOSIG RMK BLU BLU NW (320°) 20.7mph 9°C 2°C
9/12/19 11:50 EGOV 091150Z 33020KT 9999 FEW032 09/02 Q1017 NOSIG RMK BLU BLU NNW (330°) 23.0mph 9°C 2°C
9/12/19 11:28 EGOV 091128Z 32020KT 9999 FEW032 09/02 Q1016 NOSIG RMK BLU BLU NW (320°) 23.0mph 9°C 2°C
9/12/19 10:50 EGOV 091050Z 32020G30KT 9999 FEW033 09/02 Q1016 NOSIG RMK BLU BLU NW (320°) 23.0mph 34.5mph 9°C 2°C
9/12/19 10:21 EGOV 091021Z 32024KT 9999 FEW034 09/02 Q1015 NOSIG RMK BLU BLU NW (320°) 27.6mph 9°C 2°C
9/12/19 09:50 EGOV 090950Z 32024KT 9999 FEW035 09/02 Q1014 NOSIG RMK BLU BLU NW (320°) 27.6mph 9°C 2°C
9/12/19 09:21 EGOV 090921Z 32022KT 9999 FEW028 09/01 Q1013 BLU NOSIG RMK BLU BLU NW (320°) 25.3mph 9°C 1°C
9/12/19 08:50 EGOV 090850Z 32022G34KT 9999 FEW027 09/02 Q1013 NOSIG RMK BLU BLU NW (320°) 25.3mph 39.1mph 9°C 2°C
9/12/19 07:50 EGOV 090750Z 32024G34KT 9999 FEW027 08/03 Q1010 NOSIG RMK BLU BLU NW (320°) 27.6mph 39.1mph 8°C 3°C
9/12/19 06:50 EGOV 090650Z 32022KT 9999 SCT025 BKN096 09/03 Q1008 BLU NOSIG RMK BLU BLU NW (320°) 25.3mph 9°C 3°C
9/12/19 05:50 EGOV 090550Z AUTO 32026KT 9999 SCT031/// BKN036/// 09/04 Q1005 NW (320°) 29.9mph 9°C 4°C
9/12/19 04:50 EGOV 090450Z AUTO 32027G38KT 9999 SCT028/// BKN041/// 09/04 Q1002 NW (320°) 31.1mph 43.7mph 9°C 4°C
9/12/19 03:50 EGOV 090350Z AUTO 32026G39KT 9999 SCT032/// 09/05 Q0999 NW (320°) 29.9mph 44.9mph 9°C 5°C
9/12/19 02:50 EGOV 090250Z AUTO 32029G42KT 9999 BKN037/// 10/05 Q0996 NW (320°) 33.4mph 48.3mph 10°C 5°C
9/12/19 01:50 EGOV 090150Z AUTO 32030G41KT 9999 BKN021/// SCT110/// 09/06 Q0992 RERA NW (320°) 34.5mph 47.2mph 9°C 6°C
9/12/19 00:50 EGOV 090050Z AUTO 29027G44KT 4900 HZ FEW019/// BKN022/// 10/07 Q0987 RERA HZ WNW (290°) 31.1mph 50.6mph 10°C 7°C
8/12/19 23:50 EGOV 082350Z AUTO 26029G40KT 7000 HZ BKN022/// BKN038/// 08/06 Q0987 RERA HZ W (260°) 33.4mph 46.0mph 8°C 6°C
8/12/19 22:50 EGOV 082250Z AUTO 26025G35KT 9999 FEW024/// BKN090/// 08/04 Q0987 W (260°) 28.8mph 40.3mph 8°C 4°C
8/12/19 21:50 EGOV 082150Z AUTO 27025KT 9999 BKN023/// SCT034/// 08/05 Q0987 RERA W (270°) 28.8mph 8°C 5°C
8/12/19 20:50 EGOV 082050Z AUTO 24027KT 8000 HZ BKN021/// BKN032/// 08/05 Q0987 HZ WSW (240°) 31.1mph 8°C 5°C
8/12/19 19:50 EGOV 081950Z AUTO 23028KT 9000 HZ BKN023/// SCT034/// 08/04 Q0987 HZ SW (230°) 32.2mph 8°C 4°C
8/12/19 18:50 EGOV 081850Z AUTO 22026KT 9999 BKN027/// SCT041/// 08/04 Q0988 SW (220°) 29.9mph 8°C 4°C
8/12/19 17:50 EGOV 081750Z AUTO 23030KT 9999 BKN028/// 08/04 Q0989 SW (230°) 34.5mph 8°C 4°C
8/12/19 16:50 EGOV 081650Z AUTO 24031KT 9999 SCT027/// 08/04 Q0990 WSW (240°) 35.7mph 8°C 4°C
8/12/19 15:50 EGOV 081550Z AUTO 24031G42KT 9999 FEW025/// 08/03 Q0991 WSW (240°) 35.7mph 48.3mph 8°C 3°C
8/12/19 14:50 EGOV 081450Z AUTO 24028G41KT 9999 SCT031/// 08/03 Q0991 WSW (240°) 32.2mph 47.2mph 8°C 3°C
8/12/19 13:50 EGOV 081350Z AUTO 24030KT 9999 FEW027/// 08/03 Q0992 WSW (240°) 34.5mph 8°C 3°C
8/12/19 12:50 EGOV 081250Z AUTO 25025G35KT 9999 SCT032/// SCT040/// 09/03 Q0993 WSW (250°) 28.8mph 40.3mph 9°C 3°C
8/12/19 11:50 EGOV 081150Z AUTO 24028G38KT 9000 HZ SCT025/// 09/04 Q0994 HZ WSW (240°) 32.2mph 43.7mph 9°C 4°C
8/12/19 10:50 EGOV 081050Z AUTO 24029G39KT 9999 FEW027/// 09/04 Q0994 WSW (240°) 33.4mph 44.9mph 9°C 4°C
8/12/19 09:50 EGOV 080950Z AUTO 25029KT 9999 BKN029/// BKN042/// 09/04 Q0995 RERA WSW (250°) 33.4mph 9°C 4°C
8/12/19 08:50 EGOV 080850Z AUTO 24028KT 9000 HZ FEW029/// SCT033/// BKN150/// 09/04 Q0995 HZ WSW (240°) 32.2mph 9°C 4°C
8/12/19 07:50 EGOV 080750Z AUTO 24028KT 9999 FEW030/// BKN035/// BKN046/// 09/03 Q0995 WSW (240°) 32.2mph 9°C 3°C
8/12/19 06:50 EGOV 080650Z AUTO 24026G36KT 9000 HZ FEW034/// SCT049/// 09/05 Q0995 HZ WSW (240°) 29.9mph 41.4mph 9°C 5°C
8/12/19 05:50 EGOV 080550Z AUTO 25020KT 9999 FEW026/// SCT050/// 09/05 Q0995 WSW (250°) 23.0mph 9°C 5°C
8/12/19 04:50 EGOV 080450Z AUTO 26022KT 9999 SCT050/// 09/05 Q0995 RERA W (260°) 25.3mph 9°C 5°C
8/12/19 03:50 EGOV 080350Z AUTO 26025KT 8000 -RA BKN035/// 09/06 Q0995 -RA W (260°) 28.8mph 9°C 6°C
8/12/19 02:50 EGOV 080250Z AUTO 25018KT 9999 SCT050/// 11/07 Q0995 RERA WSW (250°) 20.7mph 11°C 7°C
8/12/19 01:50 EGOV 080150Z AUTO 26020KT 9999 FEW035/// 11/07 Q0994 RERA W (260°) 23.0mph 11°C 7°C
8/12/19 00:50 EGOV 080050Z AUTO 22024KT 4100 BR SCT005/// BKN013/// 12/11 Q0993 BR SW (220°) 27.6mph 12°C 11°C
7/12/19 23:50 EGOV 072350Z AUTO 21030G41KT 4000 BR OVC005/// 12/11 Q0994 RERA BR SSW (210°) 34.5mph 47.2mph 12°C 11°C
7/12/19 22:50 EGOV 072250Z AUTO 20034G44KT 2200 RA BKN006/// BKN013/// 11/10 Q0995 RA SSW (200°) 39.1mph 50.6mph 11°C 10°C
7/12/19 21:50 EGOV 072150Z AUTO 19034G50KT 2200 RA BKN006/// BKN013/// 10/10 Q0995 RA S (190°) 39.1mph 57.5mph 10°C 10°C
7/12/19 20:50 EGOV 072050Z AUTO 19033G44KT 3100 RADZ BKN007/// SCT016/// 10/09 Q0997 RA DZ S (190°) 38.0mph 50.6mph 10°C 9°C
7/12/19 19:50 EGOV 071950Z AUTO 19035KT 5000 HZ OVC008/// 10/09 Q1000 HZ S (190°) 40.3mph 10°C 9°C
7/12/19 18:50 EGOV 071850Z AUTO 19029KT 5000 HZ OVC006/// 10/09 Q1002 HZ S (190°) 33.4mph 10°C 9°C
7/12/19 17:50 EGOV 071750Z AUTO 20028KT 7000 HZ OVC008/// 10/09 Q1004 HZ SSW (200°) 32.2mph 10°C 9°C